sensor_id;sensor_type;location;lat;lon;timestamp;temperature;humidity
41469;DHT22;27206;47.032;15.484;2023-01-15T00:00:02;1.90;1.00
41469;DHT22;27206;47.032;15.484;2023-01-15T00:02:29;1.90;1.00
41469;DHT22;27206;47.032;15.484;2023-01-15T00:04:55;2.00;1.00
41469;DHT22;27206;47.032;15.484;2023-01-15T00:07:21;2.10;1.00
41469;DHT22;27206;47.032;15.484;2023-01-15T00:09:46;2.10;1.00
41469;DHT22;27206;47.032;15.484;2023-01-15T00:12:12;2.20;99.90
41469;DHT22;27206;47.032;15.484;2023-01-15T00:14:37;2.10;99.90
41469;DHT22;27206;47.032;15.484;2023-01-15T00:17:03;2.00;1.00
41469;DHT22;27206;47.032;15.484;2023-01-15T00:19:28;2.10;1.00
41469;DHT22;27206;47.032;15.484;2023-01-15T00:21:54;2.00;1.00
41469;DHT22;27206;47.032;15.484;2023-01-15T00:24:19;2.10;1.00
41469;DHT22;27206;47.032;15.484;2023-01-15T00:27:03;2.20;1.00
41469;DHT22;27206;47.032;15.484;2023-01-15T00:29:47;2.20;1.00
41469;DHT22;27206;47.032;15.484;2023-01-15T00:32:13;2.20;1.00
41469;DHT22;27206;47.032;15.484;2023-01-15T00:34:38;2.40;1.00
41469;DHT22;27206;47.032;15.484;2023-01-15T00:37:04;2.40;99.90
41469;DHT22;27206;47.032;15.484;2023-01-15T00:39:29;2.50;99.90
41469;DHT22;27206;47.032;15.484;2023-01-15T00:41:55;2.60;99.90
41469;DHT22;27206;47.032;15.484;2023-01-15T00:44:20;2.40;99.90
41469;DHT22;27206;47.032;15.484;2023-01-15T00:46:46;2.30;1.00
41469;DHT22;27206;47.032;15.484;2023-01-15T00:49:12;2.40;1.00
41469;DHT22;27206;47.032;15.484;2023-01-15T00:51:37;2.50;1.00
41469;DHT22;27206;47.032;15.484;2023-01-15T00:54:03;2.50;99.90
41469;DHT22;27206;47.032;15.484;2023-01-15T00:56:28;2.50;99.90
41469;DHT22;27206;47.032;15.484;2023-01-15T00:58:54;2.50;99.90
41469;DHT22;27206;47.032;15.484;2023-01-15T01:01:20;2.60;99.90
41469;DHT22;27206;47.032;15.484;2023-01-15T01:03:45;2.50;99.90
41469;DHT22;27206;47.032;15.484;2023-01-15T01:06:14;2.60;99.90
41469;DHT22;27206;47.032;15.484;2023-01-15T01:08:40;2.60;99.90
41469;DHT22;27206;47.032;15.484;2023-01-15T01:11:07;2.60;99.90
41469;DHT22;27206;47.032;15.484;2023-01-15T01:13:33;2.60;99.90
41469;DHT22;27206;47.032;15.484;2023-01-15T01:15:59;2.60;99.90
41469;DHT22;27206;47.032;15.484;2023-01-15T01:18:24;2.70;99.90
41469;DHT22;27206;47.032;15.484;2023-01-15T01:20:50;2.70;99.90
41469;DHT22;27206;47.032;15.484;2023-01-15T01:23:16;2.60;99.90
41469;DHT22;27206;47.032;15.484;2023-01-15T01:25:41;2.70;99.90
41469;DHT22;27206;47.032;15.484;2023-01-15T01:28:07;2.80;99.90
41469;DHT22;27206;47.032;15.484;2023-01-15T01:30:32;2.80;99.90
41469;DHT22;27206;47.032;15.484;2023-01-15T01:32:58;2.80;99.90
41469;DHT22;27206;47.032;15.484;2023-01-15T01:35:23;2.80;99.90
41469;DHT22;27206;47.032;15.484;2023-01-15T01:37:49;2.90;99.90
41469;DHT22;27206;47.032;15.484;2023-01-15T01:40:15;2.70;99.90
41469;DHT22;27206;47.032;15.484;2023-01-15T01:42:41;2.50;99.90
41469;DHT22;27206;47.032;15.484;2023-01-15T01:45:08;2.60;99.90
41469;DHT22;27206;47.032;15.484;2023-01-15T01:47:36;2.60;99.90
41469;DHT22;27206;47.032;15.484;2023-01-15T01:50:04;2.70;99.90
41469;DHT22;27206;47.032;15.484;2023-01-15T01:52:41;2.80;99.90
41469;DHT22;27206;47.032;15.484;2023-01-15T01:55:07;2.80;99.90
41469;DHT22;27206;47.032;15.484;2023-01-15T01:57:33;2.80;99.90
41469;DHT22;27206;47.032;15.484;2023-01-15T01:59:59;2.80;99.90
41469;DHT22;27206;47.032;15.484;2023-01-15T02:02:25;2.80;99.90
41469;DHT22;27206;47.032;15.484;2023-01-15T02:04:50;2.90;99.90
41469;DHT22;27206;47.032;15.484;2023-01-15T02:07:16;2.80;99.90
41469;DHT22;27206;47.032;15.484;2023-01-15T02:09:42;2.70;99.90
41469;DHT22;27206;47.032;15.484;2023-01-15T02:12:10;2.70;99.90
41469;DHT22;27206;47.032;15.484;2023-01-15T02:14:47;2.50;99.90
41469;DHT22;27206;47.032;15.484;2023-01-15T02:17:24;2.60;99.90
41469;DHT22;27206;47.032;15.484;2023-01-15T02:25:18;2.50;1.00
41469;DHT22;27206;47.032;15.484;2023-01-15T02:27:52;2.40;1.00
41469;DHT22;27206;47.032;15.484;2023-01-15T02:35:17;2.50;1.00
41469;DHT22;27206;47.032;15.484;2023-01-15T02:37:46;2.50;1.00
41469;DHT22;27206;47.032;15.484;2023-01-15T02:40:12;2.70;99.90
41469;DHT22;27206;47.032;15.484;2023-01-15T02:42:39;2.70;99.90
41469;DHT22;27206;47.032;15.484;2023-01-15T02:45:05;2.60;99.90
41469;DHT22;27206;47.032;15.484;2023-01-15T02:47:33;2.60;1.00
41469;DHT22;27206;47.032;15.484;2023-01-15T02:50:01;2.60;99.90
41469;DHT22;27206;47.032;15.484;2023-01-15T02:52:31;2.60;1.00
41469;DHT22;27206;47.032;15.484;2023-01-15T02:55:05;2.40;99.90
41469;DHT22;27206;47.032;15.484;2023-01-15T02:57:32;2.30;1.00
41469;DHT22;27206;47.032;15.484;2023-01-15T02:59:59;2.40;1.00
41469;DHT22;27206;47.032;15.484;2023-01-15T03:02:27;2.30;1.00
41469;DHT22;27206;47.032;15.484;2023-01-15T03:04:56;2.30;1.00
41469;DHT22;27206;47.032;15.484;2023-01-15T03:07:26;2.10;1.00
41469;DHT22;27206;47.032;15.484;2023-01-15T03:09:54;2.10;1.00
41469;DHT22;27206;47.032;15.484;2023-01-15T03:12:29;2.00;1.00
41469;DHT22;27206;47.032;15.484;2023-01-15T03:15:03;2.00;1.00
41469;DHT22;27206;47.032;15.484;2023-01-15T03:17:52;2.10;1.00
41469;DHT22;27206;47.032;15.484;2023-01-15T03:20:20;2.10;1.00
41469;DHT22;27206;47.032;15.484;2023-01-15T03:22:48;2.10;1.00
41469;DHT22;27206;47.032;15.484;2023-01-15T03:25:26;2.00;1.00
41469;DHT22;27206;47.032;15.484;2023-01-15T03:27:55;2.00;1.00
41469;DHT22;27206;47.032;15.484;2023-01-15T03:30:22;1.90;1.00
41469;DHT22;27206;47.032;15.484;2023-01-15T03:32:47;1.90;1.00
41469;DHT22;27206;47.032;15.484;2023-01-15T03:37:57;1.80;1.00
41469;DHT22;27206;47.032;15.484;2023-01-15T03:40:23;1.80;1.00
41469;DHT22;27206;47.032;15.484;2023-01-15T03:42:49;1.60;1.00
41469;DHT22;27206;47.032;15.484;2023-01-15T03:45:37;1.50;1.00
41469;DHT22;27206;47.032;15.484;2023-01-15T03:51:08;1.60;1.00
41469;DHT22;27206;47.032;15.484;2023-01-15T03:53:49;1.70;1.00
41469;DHT22;27206;47.032;15.484;2023-01-15T04:01:10;1.50;1.00
41469;DHT22;27206;47.032;15.484;2023-01-15T04:03:37;1.60;1.00
41469;DHT22;27206;47.032;15.484;2023-01-15T04:06:03;1.60;1.00
41469;DHT22;27206;47.032;15.484;2023-01-15T04:08:30;1.60;1.00
41469;DHT22;27206;47.032;15.484;2023-01-15T04:10:58;1.60;1.00
41469;DHT22;27206;47.032;15.484;2023-01-15T04:13:24;1.60;1.00
41469;DHT22;27206;47.032;15.484;2023-01-15T04:15:50;1.60;1.00
41469;DHT22;27206;47.032;15.484;2023-01-15T04:18:16;1.60;1.00
41469;DHT22;27206;47.032;15.484;2023-01-15T04:20:41;1.50;1.00
41469;DHT22;27206;47.032;15.484;2023-01-15T04:23:07;1.50;1.00
41469;DHT22;27206;47.032;15.484;2023-01-15T04:25:33;1.50;1.00
41469;DHT22;27206;47.032;15.484;2023-01-15T04:27:58;1.60;1.00
41469;DHT22;27206;47.032;15.484;2023-01-15T04:30:24;1.50;1.00
41469;DHT22;27206;47.032;15.484;2023-01-15T04:32:50;1.50;1.00
41469;DHT22;27206;47.032;15.484;2023-01-15T04:35:16;1.20;1.00
41469;DHT22;27206;47.032;15.484;2023-01-15T04:37:41;1.20;1.00
41469;DHT22;27206;47.032;15.484;2023-01-15T04:40:07;1.30;1.00
41469;DHT22;27206;47.032;15.484;2023-01-15T04:42:33;1.30;1.00
41469;DHT22;27206;47.032;15.484;2023-01-15T04:45:17;1.30;1.00
41469;DHT22;27206;47.032;15.484;2023-01-15T04:47:42;1.40;1.00
41469;DHT22;27206;47.032;15.484;2023-01-15T04:50:08;1.20;1.00
41469;DHT22;27206;47.032;15.484;2023-01-15T04:52:35;1.20;1.00
41469;DHT22;27206;47.032;15.484;2023-01-15T04:55:00;1.20;1.00
41469;DHT22;27206;47.032;15.484;2023-01-15T04:57:26;1.10;1.00
41469;DHT22;27206;47.032;15.484;2023-01-15T04:59:51;1.10;1.00
41469;DHT22;27206;47.032;15.484;2023-01-15T05:02:17;1.10;1.00
41469;DHT22;27206;47.032;15.484;2023-01-15T05:04:42;1.10;1.00
41469;DHT22;27206;47.032;15.484;2023-01-15T05:07:08;1.10;1.00
41469;DHT22;27206;47.032;15.484;2023-01-15T05:09:34;1.10;1.00
41469;DHT22;27206;47.032;15.484;2023-01-15T05:11:59;1.10;1.00
41469;DHT22;27206;47.032;15.484;2023-01-15T05:14:25;1.00;1.00
41469;DHT22;27206;47.032;15.484;2023-01-15T05:16:50;1.00;1.00
41469;DHT22;27206;47.032;15.484;2023-01-15T05:19:16;1.00;1.00
41469;DHT22;27206;47.032;15.484;2023-01-15T05:21:42;1.00;1.00
41469;DHT22;27206;47.032;15.484;2023-01-15T05:24:09;1.00;1.00
41469;DHT22;27206;47.032;15.484;2023-01-15T05:26:37;1.00;1.00
41469;DHT22;27206;47.032;15.484;2023-01-15T05:29:02;1.00;1.00
41469;DHT22;27206;47.032;15.484;2023-01-15T05:31:28;1.00;1.00
41469;DHT22;27206;47.032;15.484;2023-01-15T05:33:54;0.90;1.00
41469;DHT22;27206;47.032;15.484;2023-01-15T05:36:21;1.00;1.00
41469;DHT22;27206;47.032;15.484;2023-01-15T05:38:47;1.00;1.00
41469;DHT22;27206;47.032;15.484;2023-01-15T05:41:13;1.10;1.00
41469;DHT22;27206;47.032;15.484;2023-01-15T05:43:59;1.00;1.00
41469;DHT22;27206;47.032;15.484;2023-01-15T05:46:24;1.00;1.00
41469;DHT22;27206;47.032;15.484;2023-01-15T05:48:50;1.00;1.00
41469;DHT22;27206;47.032;15.484;2023-01-15T05:51:16;1.10;1.00
41469;DHT22;27206;47.032;15.484;2023-01-15T05:53:41;1.00;1.00
41469;DHT22;27206;47.032;15.484;2023-01-15T05:56:07;1.10;1.00
41469;DHT22;27206;47.032;15.484;2023-01-15T05:58:32;1.10;1.00
41469;DHT22;27206;47.032;15.484;2023-01-15T06:00:58;1.20;1.00
41469;DHT22;27206;47.032;15.484;2023-01-15T06:03:24;1.20;1.00
41469;DHT22;27206;47.032;15.484;2023-01-15T06:05:50;1.30;1.00
41469;DHT22;27206;47.032;15.484;2023-01-15T06:08:16;1.10;1.00
41469;DHT22;27206;47.032;15.484;2023-01-15T06:10:46;1.10;1.00
41469;DHT22;27206;47.032;15.484;2023-01-15T06:13:11;0.90;1.00
41469;DHT22;27206;47.032;15.484;2023-01-15T06:15:37;0.70;1.00
41469;DHT22;27206;47.032;15.484;2023-01-15T06:18:02;0.80;1.00
41469;DHT22;27206;47.032;15.484;2023-01-15T06:20:28;0.80;1.00
41469;DHT22;27206;47.032;15.484;2023-01-15T06:22:54;0.80;1.00
41469;DHT22;27206;47.032;15.484;2023-01-15T06:25:19;0.60;1.00
41469;DHT22;27206;47.032;15.484;2023-01-15T06:27:45;0.70;1.00
41469;DHT22;27206;47.032;15.484;2023-01-15T06:30:13;0.70;1.00
41469;DHT22;27206;47.032;15.484;2023-01-15T06:32:38;0.70;1.00
41469;DHT22;27206;47.032;15.484;2023-01-15T06:35:04;0.70;1.00
41469;DHT22;27206;47.032;15.484;2023-01-15T06:37:29;0.70;1.00
41469;DHT22;27206;47.032;15.484;2023-01-15T06:39:55;0.60;1.00
41469;DHT22;27206;47.032;15.484;2023-01-15T06:42:21;0.60;1.00
41469;DHT22;27206;47.032;15.484;2023-01-15T06:45:18;0.70;1.00
41469;DHT22;27206;47.032;15.484;2023-01-15T06:48:02;0.60;1.00
41469;DHT22;27206;47.032;15.484;2023-01-15T06:50:28;0.70;1.00
41469;DHT22;27206;47.032;15.484;2023-01-15T06:52:53;0.80;1.00
41469;DHT22;27206;47.032;15.484;2023-01-15T06:55:19;0.90;1.00
41469;DHT22;27206;47.032;15.484;2023-01-15T06:57:44;0.90;1.00
41469;DHT22;27206;47.032;15.484;2023-01-15T07:00:10;0.90;1.00
41469;DHT22;27206;47.032;15.484;2023-01-15T07:02:36;0.90;1.00
41469;DHT22;27206;47.032;15.484;2023-01-15T07:05:02;0.80;1.00
41469;DHT22;27206;47.032;15.484;2023-01-15T07:07:28;0.80;1.00
41469;DHT22;27206;47.032;15.484;2023-01-15T07:09:54;1.00;1.00
41469;DHT22;27206;47.032;15.484;2023-01-15T07:12:19;1.00;1.00
41469;DHT22;27206;47.032;15.484;2023-01-15T07:14:45;1.00;1.00
41469;DHT22;27206;47.032;15.484;2023-01-15T07:17:11;1.10;1.00
41469;DHT22;27206;47.032;15.484;2023-01-15T07:19:36;1.10;1.00
41469;DHT22;27206;47.032;15.484;2023-01-15T07:22:02;1.20;1.00
41469;DHT22;27206;47.032;15.484;2023-01-15T07:24:28;1.40;1.00
41469;DHT22;27206;47.032;15.484;2023-01-15T07:26:53;1.50;1.00
41469;DHT22;27206;47.032;15.484;2023-01-15T07:29:19;1.60;1.00
41469;DHT22;27206;47.032;15.484;2023-01-15T07:31:44;1.60;1.00
41469;DHT22;27206;47.032;15.484;2023-01-15T07:34:10;1.70;1.00
41469;DHT22;27206;47.032;15.484;2023-01-15T07:36:36;1.80;1.00
41469;DHT22;27206;47.032;15.484;2023-01-15T07:39:05;1.90;1.00
41469;DHT22;27206;47.032;15.484;2023-01-15T07:41:31;1.90;1.00
41469;DHT22;27206;47.032;15.484;2023-01-15T07:44:15;2.10;1.00
41469;DHT22;27206;47.032;15.484;2023-01-15T07:46:59;2.20;1.00
41469;DHT22;27206;47.032;15.484;2023-01-15T07:49:44;2.40;1.00
41469;DHT22;27206;47.032;15.484;2023-01-15T07:52:19;2.50;1.00
41469;DHT22;27206;47.032;15.484;2023-01-15T07:54:45;2.60;1.00
41469;DHT22;27206;47.032;15.484;2023-01-15T07:57:11;2.90;1.00
41469;DHT22;27206;47.032;15.484;2023-01-15T07:59:38;2.90;1.00
41469;DHT22;27206;47.032;15.484;2023-01-15T08:02:03;3.00;99.90
41469;DHT22;27206;47.032;15.484;2023-01-15T08:04:29;3.00;99.90
41469;DHT22;27206;47.032;15.484;2023-01-15T08:06:55;3.10;99.90
41469;DHT22;27206;47.032;15.484;2023-01-15T08:09:20;3.00;99.90
41469;DHT22;27206;47.032;15.484;2023-01-15T08:11:46;3.10;99.90
41469;DHT22;27206;47.032;15.484;2023-01-15T08:14:30;3.10;99.90
41469;DHT22;27206;47.032;15.484;2023-01-15T08:17:14;3.30;99.90
41469;DHT22;27206;47.032;15.484;2023-01-15T08:19:39;3.40;99.90
41469;DHT22;27206;47.032;15.484;2023-01-15T08:22:05;3.50;99.90
41469;DHT22;27206;47.032;15.484;2023-01-15T08:24:30;3.50;99.90
41469;DHT22;27206;47.032;15.484;2023-01-15T08:26:56;3.60;99.90
41469;DHT22;27206;47.032;15.484;2023-01-15T08:29:21;3.60;99.90
41469;DHT22;27206;47.032;15.484;2023-01-15T08:31:47;3.70;99.90
41469;DHT22;27206;47.032;15.484;2023-01-15T08:34:13;3.50;99.90
41469;DHT22;27206;47.032;15.484;2023-01-15T08:36:38;3.60;99.90
41469;DHT22;27206;47.032;15.484;2023-01-15T08:39:04;3.70;99.90
41469;DHT22;27206;47.032;15.484;2023-01-15T08:41:29;3.80;99.90
41469;DHT22;27206;47.032;15.484;2023-01-15T08:43:55;3.80;99.90
41469;DHT22;27206;47.032;15.484;2023-01-15T08:46:21;3.90;99.90
41469;DHT22;27206;47.032;15.484;2023-01-15T08:48:46;4.00;99.90
41469;DHT22;27206;47.032;15.484;2023-01-15T08:51:12;4.00;99.90
41469;DHT22;27206;47.032;15.484;2023-01-15T08:53:38;4.00;99.90
41469;DHT22;27206;47.032;15.484;2023-01-15T08:56:03;4.10;99.90
41469;DHT22;27206;47.032;15.484;2023-01-15T08:58:32;4.30;99.90
41469;DHT22;27206;47.032;15.484;2023-01-15T09:01:04;4.30;99.90
41469;DHT22;27206;47.032;15.484;2023-01-15T09:03:30;4.40;99.90
41469;DHT22;27206;47.032;15.484;2023-01-15T09:06:02;4.40;99.90
41469;DHT22;27206;47.032;15.484;2023-01-15T09:08:27;4.50;99.90
41469;DHT22;27206;47.032;15.484;2023-01-15T09:10:57;4.70;99.90
41469;DHT22;27206;47.032;15.484;2023-01-15T09:13:23;4.90;99.90
41469;DHT22;27206;47.032;15.484;2023-01-15T09:15:49;5.00;99.90
41469;DHT22;27206;47.032;15.484;2023-01-15T09:18:14;5.10;99.90
41469;DHT22;27206;47.032;15.484;2023-01-15T09:20:44;5.20;99.90
41469;DHT22;27206;47.032;15.484;2023-01-15T09:23:09;5.10;99.90
41469;DHT22;27206;47.032;15.484;2023-01-15T09:25:35;5.20;99.90
41469;DHT22;27206;47.032;15.484;2023-01-15T09:28:00;5.20;99.90
41469;DHT22;27206;47.032;15.484;2023-01-15T09:30:26;5.20;99.90
41469;DHT22;27206;47.032;15.484;2023-01-15T09:32:51;5.30;99.90
41469;DHT22;27206;47.032;15.484;2023-01-15T09:35:16;5.40;99.90
41469;DHT22;27206;47.032;15.484;2023-01-15T09:37:42;5.60;99.90
41469;DHT22;27206;47.032;15.484;2023-01-15T09:40:16;5.70;99.90
41469;DHT22;27206;47.032;15.484;2023-01-15T09:42:51;5.90;99.90
41469;DHT22;27206;47.032;15.484;2023-01-15T09:45:22;6.10;99.90
41469;DHT22;27206;47.032;15.484;2023-01-15T09:48:10;6.20;99.90
41469;DHT22;27206;47.032;15.484;2023-01-15T09:53:12;6.80;99.90
41469;DHT22;27206;47.032;15.484;2023-01-15T09:55:47;7.00;99.90
41469;DHT22;27206;47.032;15.484;2023-01-15T09:58:14;7.10;99.90
41469;DHT22;27206;47.032;15.484;2023-01-15T10:00:42;7.30;99.90
41469;DHT22;27206;47.032;15.484;2023-01-15T10:08:28;7.50;99.90
41469;DHT22;27206;47.032;15.484;2023-01-15T10:10:58;7.60;99.90
41469;DHT22;27206;47.032;15.484;2023-01-15T10:16:00;7.40;99.90
41469;DHT22;27206;47.032;15.484;2023-01-15T10:18:26;7.40;99.90
41469;DHT22;27206;47.032;15.484;2023-01-15T10:26:36;7.30;99.90
41469;DHT22;27206;47.032;15.484;2023-01-15T10:31:49;7.50;99.90
41469;DHT22;27206;47.032;15.484;2023-01-15T10:36:45;7.40;99.90
41469;DHT22;27206;47.032;15.484;2023-01-15T10:39:18;7.30;99.90
41469;DHT22;27206;47.032;15.484;2023-01-15T10:41:53;7.50;99.90
41469;DHT22;27206;47.032;15.484;2023-01-15T10:44:27;7.50;99.90
41469;DHT22;27206;47.032;15.484;2023-01-15T10:46:59;7.40;99.90
41469;DHT22;27206;47.032;15.484;2023-01-15T10:49:29;7.40;99.90
41469;DHT22;27206;47.032;15.484;2023-01-15T10:51:55;7.40;99.90
41469;DHT22;27206;47.032;15.484;2023-01-15T10:54:32;7.40;99.90
41469;DHT22;27206;47.032;15.484;2023-01-15T10:57:10;7.50;99.90
41469;DHT22;27206;47.032;15.484;2023-01-15T11:02:02;7.50;99.90
41469;DHT22;27206;47.032;15.484;2023-01-15T11:04:39;7.80;99.90
41469;DHT22;27206;47.032;15.484;2023-01-15T11:07:05;7.90;99.90
41469;DHT22;27206;47.032;15.484;2023-01-15T11:09:30;7.80;99.90
41469;DHT22;27206;47.032;15.484;2023-01-15T11:12:18;8.00;99.90
41469;DHT22;27206;47.032;15.484;2023-01-15T11:14:44;8.10;99.90
41469;DHT22;27206;47.032;15.484;2023-01-15T11:17:41;8.30;99.90
41469;DHT22;27206;47.032;15.484;2023-01-15T11:23:18;8.40;99.90
41469;DHT22;27206;47.032;15.484;2023-01-15T11:25:50;8.50;99.90
41469;DHT22;27206;47.032;15.484;2023-01-15T11:28:16;8.50;99.90
41469;DHT22;27206;47.032;15.484;2023-01-15T11:30:42;8.30;99.90
41469;DHT22;27206;47.032;15.484;2023-01-15T11:33:30;8.20;99.90
41469;DHT22;27206;47.032;15.484;2023-01-15T11:35:57;8.40;99.90
41469;DHT22;27206;47.032;15.484;2023-01-15T11:38:23;8.40;99.90
41469;DHT22;27206;47.032;15.484;2023-01-15T11:40:53;8.30;99.90
41469;DHT22;27206;47.032;15.484;2023-01-15T11:43:22;8.20;99.90
41469;DHT22;27206;47.032;15.484;2023-01-15T11:46:27;8.20;99.90
41469;DHT22;27206;47.032;15.484;2023-01-15T11:49:18;8.10;99.90
41469;DHT22;27206;47.032;15.484;2023-01-15T11:52:04;8.20;99.90
41469;DHT22;27206;47.032;15.484;2023-01-15T11:54:31;8.20;99.90
41469;DHT22;27206;47.032;15.484;2023-01-15T11:56:58;8.20;99.90
41469;DHT22;27206;47.032;15.484;2023-01-15T11:59:23;8.20;99.90
41469;DHT22;27206;47.032;15.484;2023-01-15T12:01:53;8.20;99.90
41469;DHT22;27206;47.032;15.484;2023-01-15T12:06:50;8.10;99.90
41469;DHT22;27206;47.032;15.484;2023-01-15T12:10:00;8.10;99.90
41469;DHT22;27206;47.032;15.484;2023-01-15T12:14:40;7.90;99.90
41469;DHT22;27206;47.032;15.484;2023-01-15T12:22:54;8.00;99.90
41469;DHT22;27206;47.032;15.484;2023-01-15T12:25:43;7.90;99.90
41469;DHT22;27206;47.032;15.484;2023-01-15T12:28:13;7.90;99.90
41469;DHT22;27206;47.032;15.484;2023-01-15T12:30:52;7.90;99.90
41469;DHT22;27206;47.032;15.484;2023-01-15T12:35:47;7.80;99.90
41469;DHT22;27206;47.032;15.484;2023-01-15T12:38:20;7.80;99.90
41469;DHT22;27206;47.032;15.484;2023-01-15T12:40:54;7.80;99.90
41469;DHT22;27206;47.032;15.484;2023-01-15T12:43:22;7.70;99.90
41469;DHT22;27206;47.032;15.484;2023-01-15T12:46:09;7.70;99.90
41469;DHT22;27206;47.032;15.484;2023-01-15T12:48:39;7.60;99.90
41469;DHT22;27206;47.032;15.484;2023-01-15T12:51:07;7.60;99.90
41469;DHT22;27206;47.032;15.484;2023-01-15T12:53:46;7.60;99.90
41469;DHT22;27206;47.032;15.484;2023-01-15T12:58:53;7.60;99.90
41469;DHT22;27206;47.032;15.484;2023-01-15T13:03:47;7.50;99.90
41469;DHT22;27206;47.032;15.484;2023-01-15T13:06:14;7.50;99.90
41469;DHT22;27206;47.032;15.484;2023-01-15T13:08:46;7.50;99.90
41469;DHT22;27206;47.032;15.484;2023-01-15T13:11:15;7.50;99.90
41469;DHT22;27206;47.032;15.484;2023-01-15T13:13:41;7.40;99.90
41469;DHT22;27206;47.032;15.484;2023-01-15T13:21:25;7.50;99.90
41469;DHT22;27206;47.032;15.484;2023-01-15T13:26:33;8.00;99.90
41469;DHT22;27206;47.032;15.484;2023-01-15T13:32:02;7.60;99.90
41469;DHT22;27206;47.032;15.484;2023-01-15T13:34:36;7.50;99.90
41469;DHT22;27206;47.032;15.484;2023-01-15T13:39:41;7.40;99.90
41469;DHT22;27206;47.032;15.484;2023-01-15T13:42:18;7.30;99.90
41469;DHT22;27206;47.032;15.484;2023-01-15T13:44:57;7.40;99.90
41469;DHT22;27206;47.032;15.484;2023-01-15T13:47:26;7.40;99.90
41469;DHT22;27206;47.032;15.484;2023-01-15T13:49:56;7.30;99.90
41469;DHT22;27206;47.032;15.484;2023-01-15T13:52:27;7.20;99.90
41469;DHT22;27206;47.032;15.484;2023-01-15T13:54:57;7.30;99.90
41469;DHT22;27206;47.032;15.484;2023-01-15T13:57:36;7.20;99.90
41469;DHT22;27206;47.032;15.484;2023-01-15T14:00:03;7.20;99.90
41469;DHT22;27206;47.032;15.484;2023-01-15T14:02:30;7.20;99.90
41469;DHT22;27206;47.032;15.484;2023-01-15T14:04:57;7.00;99.90
41469;DHT22;27206;47.032;15.484;2023-01-15T14:07:31;7.00;99.90
41469;DHT22;27206;47.032;15.484;2023-01-15T14:10:09;7.00;99.90
41469;DHT22;27206;47.032;15.484;2023-01-15T14:18:01;7.00;99.90
41469;DHT22;27206;47.032;15.484;2023-01-15T14:28:40;7.00;99.90
41469;DHT22;27206;47.032;15.484;2023-01-15T14:34:03;7.00;99.90
41469;DHT22;27206;47.032;15.484;2023-01-15T14:36:38;6.90;99.90
41469;DHT22;27206;47.032;15.484;2023-01-15T14:39:06;6.80;99.90
41469;DHT22;27206;47.032;15.484;2023-01-15T14:41:42;6.80;99.90
41469;DHT22;27206;47.032;15.484;2023-01-15T14:44:28;6.80;99.90
41469;DHT22;27206;47.032;15.484;2023-01-15T14:46:57;6.90;99.90
41469;DHT22;27206;47.032;15.484;2023-01-15T14:49:27;6.90;99.90
41469;DHT22;27206;47.032;15.484;2023-01-15T14:51:53;6.90;99.90
41469;DHT22;27206;47.032;15.484;2023-01-15T14:54:19;6.90;99.90
41469;DHT22;27206;47.032;15.484;2023-01-15T14:56:49;6.90;99.90
41469;DHT22;27206;47.032;15.484;2023-01-15T14:59:16;6.80;99.90
41469;DHT22;27206;47.032;15.484;2023-01-15T15:06:59;6.50;99.90
41469;DHT22;27206;47.032;15.484;2023-01-15T15:09:30;6.50;99.90
41469;DHT22;27206;47.032;15.484;2023-01-15T15:12:04;6.30;99.90
41469;DHT22;27206;47.032;15.484;2023-01-15T15:14:44;6.30;99.90
41469;DHT22;27206;47.032;15.484;2023-01-15T15:17:19;6.20;99.90
41469;DHT22;27206;47.032;15.484;2023-01-15T15:19:49;6.00;99.90
41469;DHT22;27206;47.032;15.484;2023-01-15T15:22:17;5.90;99.90
41469;DHT22;27206;47.032;15.484;2023-01-15T15:24:47;6.00;99.90
41469;DHT22;27206;47.032;15.484;2023-01-15T15:27:15;5.90;99.90
41469;DHT22;27206;47.032;15.484;2023-01-15T15:29:41;5.90;99.90
41469;DHT22;27206;47.032;15.484;2023-01-15T15:32:07;6.00;99.90
41469;DHT22;27206;47.032;15.484;2023-01-15T15:34:36;6.00;99.90
41469;DHT22;27206;47.032;15.484;2023-01-15T15:37:20;6.00;99.90
41469;DHT22;27206;47.032;15.484;2023-01-15T15:39:51;6.00;99.90
41469;DHT22;27206;47.032;15.484;2023-01-15T15:42:21;5.80;99.90
41469;DHT22;27206;47.032;15.484;2023-01-15T15:45:21;5.90;99.90
41469;DHT22;27206;47.032;15.484;2023-01-15T15:48:22;6.00;99.90
41469;DHT22;27206;47.032;15.484;2023-01-15T16:01:47;5.60;99.90
41469;DHT22;27206;47.032;15.484;2023-01-15T16:04:16;5.50;99.90
41469;DHT22;27206;47.032;15.484;2023-01-15T16:06:42;5.50;99.90
41469;DHT22;27206;47.032;15.484;2023-01-15T16:09:08;5.50;99.90
41469;DHT22;27206;47.032;15.484;2023-01-15T16:11:33;5.30;99.90
41469;DHT22;27206;47.032;15.484;2023-01-15T16:13:59;5.40;99.90
41469;DHT22;27206;47.032;15.484;2023-01-15T16:16:29;5.30;99.90
41469;DHT22;27206;47.032;15.484;2023-01-15T16:18:55;5.20;99.90
41469;DHT22;27206;47.032;15.484;2023-01-15T16:21:32;5.10;99.90
41469;DHT22;27206;47.032;15.484;2023-01-15T16:23:59;5.00;99.90
41469;DHT22;27206;47.032;15.484;2023-01-15T16:28:56;5.10;99.90
41469;DHT22;27206;47.032;15.484;2023-01-15T16:31:22;5.10;99.90
41469;DHT22;27206;47.032;15.484;2023-01-15T16:33:54;4.90;99.90
41469;DHT22;27206;47.032;15.484;2023-01-15T16:36:21;5.10;99.90
41469;DHT22;27206;47.032;15.484;2023-01-15T16:38:49;5.00;99.90
41469;DHT22;27206;47.032;15.484;2023-01-15T16:41:19;5.10;99.90
41469;DHT22;27206;47.032;15.484;2023-01-15T16:43:49;5.00;99.90
41469;DHT22;27206;47.032;15.484;2023-01-15T16:46:16;5.00;99.90
41469;DHT22;27206;47.032;15.484;2023-01-15T16:48:42;5.10;99.90
41469;DHT22;27206;47.032;15.484;2023-01-15T16:51:22;5.10;99.90
41469;DHT22;27206;47.032;15.484;2023-01-15T16:53:52;5.10;99.90
41469;DHT22;27206;47.032;15.484;2023-01-15T16:56:25;5.10;99.90
41469;DHT22;27206;47.032;15.484;2023-01-15T16:58:51;5.00;99.90
41469;DHT22;27206;47.032;15.484;2023-01-15T17:01:36;5.10;99.90
41469;DHT22;27206;47.032;15.484;2023-01-15T17:04:03;5.20;99.90
41469;DHT22;27206;47.032;15.484;2023-01-15T17:06:39;5.20;99.90
41469;DHT22;27206;47.032;15.484;2023-01-15T17:09:04;5.20;99.90
41469;DHT22;27206;47.032;15.484;2023-01-15T17:11:30;5.30;99.90
41469;DHT22;27206;47.032;15.484;2023-01-15T17:16:41;5.30;99.90
41469;DHT22;27206;47.032;15.484;2023-01-15T17:19:08;5.40;99.90
41469;DHT22;27206;47.032;15.484;2023-01-15T17:21:35;5.60;99.90
41469;DHT22;27206;47.032;15.484;2023-01-15T17:24:01;5.80;99.90
41469;DHT22;27206;47.032;15.484;2023-01-15T17:26:28;5.70;99.90
41469;DHT22;27206;47.032;15.484;2023-01-15T17:28:54;5.70;99.90
41469;DHT22;27206;47.032;15.484;2023-01-15T17:31:27;5.70;99.90
41469;DHT22;27206;47.032;15.484;2023-01-15T17:33:55;5.60;99.90
41469;DHT22;27206;47.032;15.484;2023-01-15T17:36:20;5.60;99.90
41469;DHT22;27206;47.032;15.484;2023-01-15T17:38:46;5.60;99.90
41469;DHT22;27206;47.032;15.484;2023-01-15T17:41:12;5.70;99.90
41469;DHT22;27206;47.032;15.484;2023-01-15T17:43:38;5.70;99.90
41469;DHT22;27206;47.032;15.484;2023-01-15T17:46:03;5.70;99.90